sensor_id;sensor_type;location;lat;lon;timestamp;pressure;altitude;pressure_sealevel;temperature;humidity
60437;BME280;46289;51.992;4.498;2023-04-22T00:00:50;101058.91;;;7.00;94.03
60437;BME280;46289;51.992;4.498;2023-04-22T00:02:57;101061.66;;;6.94;92.62
60437;BME280;46289;51.992;4.498;2023-04-22T00:05:03;101070.44;;;6.91;92.51
60437;BME280;46289;51.992;4.498;2023-04-22T00:07:12;101065.22;;;6.91;94.65
60437;BME280;46289;51.992;4.498;2023-04-22T00:09:19;101060.06;;;6.87;93.84
60437;BME280;46289;51.992;4.498;2023-04-22T00:11:26;101067.13;;;6.83;94.87
60437;BME280;46289;51.992;4.498;2023-04-22T00:13:31;101055.09;;;6.76;93.77
60437;BME280;46289;51.992;4.498;2023-04-22T00:15:37;101058.66;;;6.72;93.06
60437;BME280;46289;51.992;4.498;2023-04-22T00:17:42;101064.81;;;6.69;94.99
60437;BME280;46289;51.992;4.498;2023-04-22T00:19:51;101061.31;;;6.69;94.43
60437;BME280;46289;51.992;4.498;2023-04-22T00:21:57;101061.44;;;6.63;94.71
60437;BME280;46289;51.992;4.498;2023-04-22T00:24:05;101057.25;;;6.55;94.08
60437;BME280;46289;51.992;4.498;2023-04-22T00:26:13;101061.59;;;6.55;95.41
60437;BME280;46289;51.992;4.498;2023-04-22T00:28:19;101060.84;;;6.50;94.39
60437;BME280;46289;51.992;4.498;2023-04-22T00:30:27;101060.88;;;6.48;95.63
60437;BME280;46289;51.992;4.498;2023-04-22T00:32:32;101056.66;;;6.41;94.56
60437;BME280;46289;51.992;4.498;2023-04-22T00:34:37;101047.16;;;6.38;94.78
60437;BME280;46289;51.992;4.498;2023-04-22T00:36:42;101053.38;;;6.31;95.39
60437;BME280;46289;51.992;4.498;2023-04-22T00:38:49;101054.28;;;6.30;96.16
60437;BME280;46289;51.992;4.498;2023-04-22T00:40:58;101051.72;;;6.27;95.46
60437;BME280;46289;51.992;4.498;2023-04-22T00:43:03;101050.88;;;6.25;95.68
60437;BME280;46289;51.992;4.498;2023-04-22T00:45:10;101057.00;;;6.24;95.90
60437;BME280;46289;51.992;4.498;2023-04-22T00:47:16;101055.34;;;6.19;95.68
60437;BME280;46289;51.992;4.498;2023-04-22T00:49:21;101060.56;;;6.20;96.15
60437;BME280;46289;51.992;4.498;2023-04-22T00:51:27;101065.97;;;6.11;95.56
60437;BME280;46289;51.992;4.498;2023-04-22T00:53:32;101065.19;;;6.04;95.06
60437;BME280;46289;51.992;4.498;2023-04-22T00:55:38;101063.50;;;6.02;95.73
60437;BME280;46289;51.992;4.498;2023-04-22T00:57:48;101064.44;;;5.98;94.83
60437;BME280;46289;51.992;4.498;2023-04-22T00:59:55;101066.16;;;5.99;95.19
60437;BME280;46289;51.992;4.498;2023-04-22T01:02:02;101070.59;;;5.95;94.82
60437;BME280;46289;51.992;4.498;2023-04-22T01:04:08;101066.25;;;5.94;95.38
60437;BME280;46289;51.992;4.498;2023-04-22T01:06:16;101067.81;;;6.03;95.32
60437;BME280;46289;51.992;4.498;2023-04-22T01:08:27;101068.66;;;6.06;95.95
60437;BME280;46289;51.992;4.498;2023-04-22T01:10:34;101065.19;;;6.04;96.22
60437;BME280;46289;51.992;4.498;2023-04-22T01:12:39;101073.19;;;5.95;95.88
60437;BME280;46289;51.992;4.498;2023-04-22T01:14:48;101062.78;;;5.95;97.19
60437;BME280;46289;51.992;4.498;2023-04-22T01:16:53;101060.22;;;5.89;96.33
60437;BME280;46289;51.992;4.498;2023-04-22T01:18:59;101063.78;;;5.85;95.75
60437;BME280;46289;51.992;4.498;2023-04-22T01:21:05;101061.25;;;5.80;95.71
60437;BME280;46289;51.992;4.498;2023-04-22T01:23:19;101058.59;;;5.82;96.66
60437;BME280;46289;51.992;4.498;2023-04-22T01:25:27;101057.78;;;5.78;96.24
60437;BME280;46289;51.992;4.498;2023-04-22T01:27:32;101050.81;;;5.79;96.91
60437;BME280;46289;51.992;4.498;2023-04-22T01:29:39;101059.69;;;5.68;96.24
60437;BME280;46289;51.992;4.498;2023-04-22T01:31:44;101054.47;;;5.68;97.23
60437;BME280;46289;51.992;4.498;2023-04-22T01:33:50;101058.91;;;5.65;96.78
60437;BME280;46289;51.992;4.498;2023-04-22T01:35:55;101058.00;;;5.66;96.63
60437;BME280;46289;51.992;4.498;2023-04-22T01:38:00;101063.13;;;5.70;97.20
60437;BME280;46289;51.992;4.498;2023-04-22T01:40:10;101058.00;;;5.66;96.19
60437;BME280;46289;51.992;4.498;2023-04-22T01:42:19;101050.16;;;5.67;96.39
60437;BME280;46289;51.992;4.498;2023-04-22T01:44:24;101053.69;;;5.63;96.80
60437;BME280;46289;51.992;4.498;2023-04-22T01:46:30;101055.50;;;5.60;96.85
60437;BME280;46289;51.992;4.498;2023-04-22T01:48:35;101050.34;;;5.58;96.64
60437;BME280;46289;51.992;4.498;2023-04-22T01:50:40;101057.25;;;5.59;96.41
60437;BME280;46289;51.992;4.498;2023-04-22T01:52:46;101056.41;;;5.57;96.61
60437;BME280;46289;51.992;4.498;2023-04-22T01:54:51;101055.53;;;5.58;97.32
60437;BME280;46289;51.992;4.498;2023-04-22T01:57:07;101053.84;;;5.54;96.64
60437;BME280;46289;51.992;4.498;2023-04-22T01:59:12;101059.13;;;5.49;96.26
60437;BME280;46289;51.992;4.498;2023-04-22T02:01:18;101059.19;;;5.48;97.54
60437;BME280;46289;51.992;4.498;2023-04-22T02:03:27;101049.63;;;5.47;97.15
60437;BME280;46289;51.992;4.498;2023-04-22T02:05:32;101047.94;;;5.44;97.02
60437;BME280;46289;51.992;4.498;2023-04-22T02:07:37;101046.97;;;5.50;97.80
60437;BME280;46289;51.992;4.498;2023-04-22T02:09:43;101055.63;;;5.52;97.48
60437;BME280;46289;51.992;4.498;2023-04-22T02:11:45;101046.94;;;5.53;97.29
60437;BME280;46289;51.992;4.498;2023-04-22T02:13:52;101043.44;;;5.53;97.90
60437;BME280;46289;51.992;4.498;2023-04-22T02:15:58;101042.56;;;5.54;97.24
60437;BME280;46289;51.992;4.498;2023-04-22T02:18:03;101042.53;;;5.55;97.13
60437;BME280;46289;51.992;4.498;2023-04-22T02:20:10;101036.41;;;5.58;97.06
60437;BME280;46289;51.992;4.498;2023-04-22T02:22:15;101041.41;;;5.71;96.88
60437;BME280;46289;51.992;4.498;2023-04-22T02:24:21;101043.19;;;5.69;97.18
60437;BME280;46289;51.992;4.498;2023-04-22T02:26:28;101040.66;;;5.65;96.96
60437;BME280;46289;51.992;4.498;2023-04-22T02:28:33;101038.09;;;5.60;97.23
60437;BME280;46289;51.992;4.498;2023-04-22T02:30:43;101038.94;;;5.62;97.21
60437;BME280;46289;51.992;4.498;2023-04-22T02:32:52;101037.97;;;5.69;97.13
60437;BME280;46289;51.992;4.498;2023-04-22T02:34:57;101036.22;;;5.70;97.04
60437;BME280;46289;51.992;4.498;2023-04-22T02:37:03;101033.59;;;5.71;97.32
60437;BME280;46289;51.992;4.498;2023-04-22T02:39:08;101035.28;;;5.74;97.43
60437;BME280;46289;51.992;4.498;2023-04-22T02:41:13;101038.56;;;5.84;97.32
60437;BME280;46289;51.992;4.498;2023-04-22T02:43:18;101036.09;;;5.78;97.14
60437;BME280;46289;51.992;4.498;2023-04-22T02:45:23;101036.88;;;5.81;97.31
60437;BME280;46289;51.992;4.498;2023-04-22T02:47:32;101032.44;;;5.88;97.57
60437;BME280;46289;51.992;4.498;2023-04-22T02:49:37;101030.59;;;5.93;97.79
60437;BME280;46289;51.992;4.498;2023-04-22T02:51:43;101020.06;;;6.01;98.10
60437;BME280;46289;51.992;4.498;2023-04-22T02:53:49;101017.47;;;5.99;97.55
60437;BME280;46289;51.992;4.498;2023-04-22T02:55:54;101020.06;;;6.01;97.98
60437;BME280;46289;51.992;4.498;2023-04-22T02:58:00;101014.84;;;6.01;98.02
60437;BME280;46289;51.992;4.498;2023-04-22T03:00:07;101021.75;;;6.02;97.97
60437;BME280;46289;51.992;4.498;2023-04-22T03:02:12;101007.03;;;5.98;98.55
60437;BME280;46289;51.992;4.498;2023-04-22T03:04:23;101004.28;;;6.05;98.11
60437;BME280;46289;51.992;4.498;2023-04-22T03:06:28;101011.19;;;6.08;98.06
60437;BME280;46289;51.992;4.498;2023-04-22T03:08:33;101004.34;;;6.02;98.48
60437;BME280;46289;51.992;4.498;2023-04-22T03:10:38;100998.41;;;5.96;98.64
60437;BME280;46289;51.992;4.498;2023-04-22T03:12:43;101004.47;;;5.96;98.56
60437;BME280;46289;51.992;4.498;2023-04-22T03:14:52;101002.72;;;5.97;98.47
60437;BME280;46289;51.992;4.498;2023-04-22T03:16:57;100999.19;;;5.99;98.63
60437;BME280;46289;51.992;4.498;2023-04-22T03:19:02;100998.41;;;5.96;98.49
60437;BME280;46289;51.992;4.498;2023-04-22T03:21:10;100988.84;;;5.96;98.19
60437;BME280;46289;51.992;4.498;2023-04-22T03:23:15;100994.97;;;5.93;98.36
60437;BME280;46289;51.992;4.498;2023-04-22T03:25:21;100990.53;;;5.97;98.48
60437;BME280;46289;51.992;4.498;2023-04-22T03:27:29;100988.72;;;6.02;98.26
60437;BME280;46289;51.992;4.498;2023-04-22T03:29:34;100991.38;;;6.01;98.57
60437;BME280;46289;51.992;4.498;2023-04-22T03:31:40;100989.69;;;5.97;98.21
60437;BME280;46289;51.992;4.498;2023-04-22T03:33:45;100980.19;;;5.91;98.41
60437;BME280;46289;51.992;4.498;2023-04-22T03:35:50;100985.41;;;5.91;98.64
60437;BME280;46289;51.992;4.498;2023-04-22T03:37:58;100978.50;;;5.90;98.68
60437;BME280;46289;51.992;4.498;2023-04-22T03:40:04;100971.59;;;5.87;98.78
60437;BME280;46289;51.992;4.498;2023-04-22T03:42:12;100978.44;;;5.91;98.94
60437;BME280;46289;51.992;4.498;2023-04-22T03:44:20;100968.97;;;5.87;98.82
60437;BME280;46289;51.992;4.498;2023-04-22T03:46:25;100975.06;;;5.88;99.10
60437;BME280;46289;51.992;4.498;2023-04-22T03:48:31;100966.38;;;5.87;98.77
60437;BME280;46289;51.992;4.498;2023-04-22T03:50:37;100963.66;;;5.93;99.04
60437;BME280;46289;51.992;4.498;2023-04-22T03:52:42;100964.38;;;6.02;99.12
60437;BME280;46289;51.992;4.498;2023-04-22T03:54:51;100966.16;;;6.00;98.80
60437;BME280;46289;51.992;4.498;2023-04-22T03:56:56;100963.47;;;6.03;98.85
60437;BME280;46289;51.992;4.498;2023-04-22T03:59:02;100960.84;;;6.04;98.91
60437;BME280;46289;51.992;4.498;2023-04-22T04:01:07;100959.06;;;6.06;98.68
60437;BME280;46289;51.992;4.498;2023-04-22T04:03:14;100946.91;;;6.05;98.79
60437;BME280;46289;51.992;4.498;2023-04-22T04:05:22;100948.63;;;6.06;98.95
60437;BME280;46289;51.992;4.498;2023-04-22T04:07:28;100949.50;;;6.05;98.97
60437;BME280;46289;51.992;4.498;2023-04-22T04:09:34;100953.81;;;6.08;98.80
60437;BME280;46289;51.992;4.498;2023-04-22T04:11:42;100947.75;;;6.07;98.78
60437;BME280;46289;51.992;4.498;2023-04-22T04:13:50;100956.41;;;6.08;98.77
60437;BME280;46289;51.992;4.498;2023-04-22T04:15:55;100952.13;;;6.05;98.97
60437;BME280;46289;51.992;4.498;2023-04-22T04:18:02;100948.72;;;6.03;98.86
60437;BME280;46289;51.992;4.498;2023-04-22T04:20:08;100945.22;;;6.03;98.69
60437;BME280;46289;51.992;4.498;2023-04-22T04:22:13;100947.81;;;6.03;98.73
60437;BME280;46289;51.992;4.498;2023-04-22T04:24:20;100948.72;;;6.02;98.98
60437;BME280;46289;51.992;4.498;2023-04-22T04:26:25;100945.25;;;6.01;99.09
60437;BME280;46289;51.992;4.498;2023-04-22T04:28:34;100942.66;;;6.01;99.36
60437;BME280;46289;51.992;4.498;2023-04-22T04:30:39;100936.59;;;5.99;99.54
60437;BME280;46289;51.992;4.498;2023-04-22T04:32:44;100941.84;;;5.98;99.44
60437;BME280;46289;51.992;4.498;2023-04-22T04:34:50;100942.81;;;5.93;98.63
60437;BME280;46289;51.992;4.498;2023-04-22T04:36:56;100943.69;;;5.91;98.84
60437;BME280;46289;51.992;4.498;2023-04-22T04:39:02;100935.94;;;5.88;98.55
60437;BME280;46289;51.992;4.498;2023-04-22T04:41:07;100936.81;;;5.87;98.57
60437;BME280;46289;51.992;4.498;2023-04-22T04:43:12;100931.63;;;5.85;98.53
60437;BME280;46289;51.992;4.498;2023-04-22T04:45:23;100934.25;;;5.85;98.51
60437;BME280;46289;51.992;4.498;2023-04-22T04:47:28;100940.31;;;5.86;99.10
60437;BME280;46289;51.992;4.498;2023-04-22T04:49:34;100928.16;;;5.85;98.99
60437;BME280;46289;51.992;4.498;2023-04-22T04:51:41;100929.03;;;5.85;98.88
60437;BME280;46289;51.992;4.498;2023-04-22T04:53:46;100928.97;;;5.87;98.62
60437;BME280;46289;51.992;4.498;2023-04-22T04:55:51;100919.44;;;5.86;99.00
60437;BME280;46289;51.992;4.498;2023-04-22T04:57:57;100926.38;;;5.87;98.98
60437;BME280;46289;51.992;4.498;2023-04-22T05:00:04;100924.59;;;5.89;98.98
60437;BME280;46289;51.992;4.498;2023-04-22T05:02:12;100920.19;;;5.94;99.08
60437;BME280;46289;51.992;4.498;2023-04-22T05:04:20;100915.72;;;6.01;99.26
60437;BME280;46289;51.992;4.498;2023-04-22T05:06:26;100914.75;;;6.05;99.54
60437;BME280;46289;51.992;4.498;2023-04-22T05:08:33;100915.56;;;6.08;99.56
60437;BME280;46289;51.992;4.498;2023-04-22T05:10:39;100914.66;;;6.09;99.06
60437;BME280;46289;51.992;4.498;2023-04-22T05:12:44;100923.38;;;6.08;98.77
60437;BME280;46289;51.992;4.498;2023-04-22T05:14:50;100926.78;;;6.12;98.93
60437;BME280;46289;51.992;4.498;2023-04-22T05:16:55;100931.06;;;6.14;99.08
60437;BME280;46289;51.992;4.498;2023-04-22T05:19:04;100931.84;;;6.18;99.46
60437;BME280;46289;51.992;4.498;2023-04-22T05:21:09;100928.31;;;6.21;99.04
60437;BME280;46289;51.992;4.498;2023-04-22T05:23:14;100931.78;;;6.23;99.06
60437;BME280;46289;51.992;4.498;2023-04-22T05:25:23;100931.75;;;6.24;99.03
60437;BME280;46289;51.992;4.498;2023-04-22T05:27:27;100942.97;;;6.28;99.25
60437;BME280;46289;51.992;4.498;2023-04-22T05:29:33;100945.44;;;6.34;99.23
60437;BME280;46289;51.992;4.498;2023-04-22T05:31:39;100945.38;;;6.37;99.23
60437;BME280;46289;51.992;4.498;2023-04-22T05:33:44;100953.09;;;6.43;99.21
60437;BME280;46289;51.992;4.498;2023-04-22T05:35:53;100947.72;;;6.49;99.38
60437;BME280;46289;51.992;4.498;2023-04-22T05:37:58;100945.03;;;6.52;99.04
60437;BME280;46289;51.992;4.498;2023-04-22T05:40:05;100948.41;;;6.59;99.06
60437;BME280;46289;51.992;4.498;2023-04-22T05:42:10;100950.91;;;6.64;99.04
60437;BME280;46289;51.992;4.498;2023-04-22T05:44:15;100950.75;;;6.70;99.04
60437;BME280;46289;51.992;4.498;2023-04-22T05:46:20;100952.38;;;6.74;99.30
60437;BME280;46289;51.992;4.498;2023-04-22T05:48:25;100945.31;;;6.79;99.05
60437;BME280;46289;51.992;4.498;2023-04-22T05:50:31;100941.72;;;6.85;98.75
60437;BME280;46289;51.992;4.498;2023-04-22T05:52:42;100952.03;;;6.91;98.82
60437;BME280;46289;51.992;4.498;2023-04-22T05:54:48;100943.16;;;6.96;98.94
60437;BME280;46289;51.992;4.498;2023-04-22T05:56:54;100935.19;;;7.02;98.75
60437;BME280;46289;51.992;4.498;2023-04-22T05:58:59;100928.09;;;7.08;98.92
60437;BME280;46289;51.992;4.498;2023-04-22T06:01:04;100927.91;;;7.15;98.67
60437;BME280;46289;51.992;4.498;2023-04-22T06:03:09;100924.31;;;7.19;98.84
60437;BME280;46289;51.992;4.498;2023-04-22T06:05:15;100921.53;;;7.27;98.68
60437;BME280;46289;51.992;4.498;2023-04-22T06:07:20;100925.72;;;7.33;98.44
60437;BME280;46289;51.992;4.498;2023-04-22T06:09:32;100918.66;;;7.36;98.47
60437;BME280;46289;51.992;4.498;2023-04-22T06:11:37;100924.63;;;7.41;98.34
60437;BME280;46289;51.992;4.498;2023-04-22T06:13:43;100914.91;;;7.46;98.27
60437;BME280;46289;51.992;4.498;2023-04-22T06:15:50;100914.81;;;7.50;98.41
60437;BME280;46289;51.992;4.498;2023-04-22T06:17:55;100915.56;;;7.55;98.14
60437;BME280;46289;51.992;4.498;2023-04-22T06:20:01;100915.47;;;7.58;97.87
60437;BME280;46289;51.992;4.498;2023-04-22T06:22:07;100917.03;;;7.65;98.23
60437;BME280;46289;51.992;4.498;2023-04-22T06:24:12;100916.84;;;7.71;98.04
60437;BME280;46289;51.992;4.498;2023-04-22T06:26:22;100910.66;;;7.75;97.62
60437;BME280;46289;51.992;4.498;2023-04-22T06:28:27;100911.38;;;7.80;97.45
60437;BME280;46289;51.992;4.498;2023-04-22T06:30:33;100913.78;;;7.88;97.59
60437;BME280;46289;51.992;4.498;2023-04-22T06:32:39;100907.44;;;7.95;97.69
60437;BME280;46289;51.992;4.498;2023-04-22T06:34:44;100911.63;;;8.02;97.20
60437;BME280;46289;51.992;4.498;2023-04-22T06:36:52;100903.56;;;8.10;97.21
60437;BME280;46289;51.992;4.498;2023-04-22T06:38:57;100901.69;;;8.13;97.40
60437;BME280;46289;51.992;4.498;2023-04-22T06:41:02;100896.19;;;8.23;96.55
60437;BME280;46289;51.992;4.498;2023-04-22T06:43:10;100905.72;;;8.25;96.51
60437;BME280;46289;51.992;4.498;2023-04-22T06:45:15;100909.00;;;8.32;96.33
60437;BME280;46289;51.992;4.498;2023-04-22T06:47:22;100911.19;;;8.47;96.05
60437;BME280;46289;51.992;4.498;2023-04-22T06:49:27;100904.00;;;8.54;95.70
60437;BME280;46289;51.992;4.498;2023-04-22T06:51:34;100905.53;;;8.61;95.15
60437;BME280;46289;51.992;4.498;2023-04-22T06:53:39;100897.41;;;8.69;95.02
60437;BME280;46289;51.992;4.498;2023-04-22T06:55:44;100898.81;;;8.81;94.57
60437;BME280;46289;51.992;4.498;2023-04-22T06:57:52;100892.25;;;8.94;94.59
60437;BME280;46289;51.992;4.498;2023-04-22T07:00:01;100899.75;;;9.05;94.27
60437;BME280;46289;51.992;4.498;2023-04-22T07:02:06;100891.59;;;9.14;93.65
60437;BME280;46289;51.992;4.498;2023-04-22T07:04:12;100886.06;;;9.21;93.42
60437;BME280;46289;51.992;4.498;2023-04-22T07:06:20;100887.47;;;9.32;92.97
60437;BME280;46289;51.992;4.498;2023-04-22T07:08:25;100890.88;;;9.35;92.19
60437;BME280;46289;51.992;4.498;2023-04-22T07:10:32;100887.09;;;9.42;92.81
60437;BME280;46289;51.992;4.498;2023-04-22T07:12:37;100892.00;;;9.53;92.62
60437;BME280;46289;51.992;4.498;2023-04-22T07:14:43;100892.50;;;9.63;92.29
60437;BME280;46289;51.992;4.498;2023-04-22T07:16:51;100895.09;;;9.64;90.74
60437;BME280;46289;51.992;4.498;2023-04-22T07:18:57;100891.84;;;9.81;91.53
60437;BME280;46289;51.992;4.498;2023-04-22T07:21:04;100895.94;;;9.90;90.04
60437;BME280;46289;51.992;4.498;2023-04-22T07:23:09;100897.25;;;10.00;89.65
60437;BME280;46289;51.992;4.498;2023-04-22T07:25:15;100886.84;;;9.99;89.71
60437;BME280;46289;51.992;4.498;2023-04-22T07:27:21;100892.94;;;10.23;89.44
60437;BME280;46289;51.992;4.498;2023-04-22T07:29:27;100888.69;;;10.42;89.39
60437;BME280;46289;51.992;4.498;2023-04-22T07:31:34;100900.69;;;10.49;89.28
60437;BME280;46289;51.992;4.498;2023-04-22T07:33:42;100905.78;;;10.54;88.81
60437;BME280;46289;51.992;4.498;2023-04-22T07:35:48;100907.97;;;10.65;88.02
60437;BME280;46289;51.992;4.498;2023-04-22T07:37:53;100909.16;;;10.80;87.39
60437;BME280;46289;51.992;4.498;2023-04-22T07:39:58;100907.66;;;10.94;86.21
60437;BME280;46289;51.992;4.498;2023-04-22T07:42:04;100899.97;;;11.10;83.66
60437;BME280;46289;51.992;4.498;2023-04-22T07:44:09;100896.19;;;11.38;84.73
60437;BME280;46289;51.992;4.498;2023-04-22T07:46:21;100898.41;;;11.68;82.87
60437;BME280;46289;51.992;4.498;2023-04-22T07:48:28;100900.41;;;11.81;81.33
60437;BME280;46289;51.992;4.498;2023-04-22T07:50:38;100885.84;;;12.33;81.61
60437;BME280;46289;51.992;4.498;2023-04-22T07:52:44;100883.50;;;12.63;79.33
60437;BME280;46289;51.992;4.498;2023-04-22T07:54:49;100885.03;;;12.86;77.05
60437;BME280;46289;51.992;4.498;2023-04-22T07:56:54;100876.53;;;12.98;77.89
60437;BME280;46289;51.992;4.498;2023-04-22T07:59:02;100870.06;;;13.21;77.58
60437;BME280;46289;51.992;4.498;2023-04-22T08:01:07;100862.56;;;13.48;75.43
60437;BME280;46289;51.992;4.498;2023-04-22T08:03:12;100859.69;;;13.69;74.71
60437;BME280;46289;51.992;4.498;2023-04-22T08:05:20;100850.81;;;14.03;74.93
60437;BME280;46289;51.992;4.498;2023-04-22T08:07:28;100848.03;;;14.06;74.04
60437;BME280;46289;51.992;4.498;2023-04-22T08:09:34;100847.97;;;13.41;72.48
60437;BME280;46289;51.992;4.498;2023-04-22T08:11:40;100848.69;;;13.27;75.73
60437;BME280;46289;51.992;4.498;2023-04-22T08:13:45;100856.88;;;13.04;73.16
60437;BME280;46289;51.992;4.498;2023-04-22T08:15:50;100860.13;;;12.91;76.06
60437;BME280;46289;51.992;4.498;2023-04-22T08:17:56;100858.41;;;13.08;76.77
60437;BME280;46289;51.992;4.498;2023-04-22T08:20:04;100859.59;;;13.02;73.44
60437;BME280;46289;51.992;4.498;2023-04-22T08:22:09;100863.94;;;12.86;74.82
60437;BME280;46289;51.992;4.498;2023-04-22T08:24:20;100855.88;;;13.06;75.01
60437;BME280;46289;51.992;4.498;2023-04-22T08:26:27;100858.13;;;13.31;73.48
60437;BME280;46289;51.992;4.498;2023-04-22T08:28:33;100855.16;;;13.37;74.74
60437;BME280;46289;51.992;4.498;2023-04-22T08:30:38;100860.94;;;13.46;71.91
60437;BME280;46289;51.992;4.498;2023-04-22T08:32:43;100858.19;;;13.47;70.05
60437;BME280;46289;51.992;4.498;2023-04-22T08:34:49;100860.25;;;13.91;69.92
60437;BME280;46289;51.992;4.498;2023-04-22T08:37:04;100856.28;;;14.32;67.54
60437;BME280;46289;51.992;4.498;2023-04-22T08:39:10;100861.31;;;14.52;67.80
60437;BME280;46289;51.992;4.498;2023-04-22T08:41:20;100850.84;;;14.97;66.65
60437;BME280;46289;51.992;4.498;2023-04-22T08:43:26;100843.66;;;14.99;67.70
60437;BME280;46289;51.992;4.498;2023-04-22T08:45:38;100854.06;;;15.02;68.16
60437;BME280;46289;51.992;4.498;2023-04-22T08:47:44;100846.44;;;14.81;68.79
60437;BME280;46289;51.992;4.498;2023-04-22T08:49:50;100838.72;;;14.92;67.80
60437;BME280;46289;51.992;4.498;2023-04-22T08:51:57;100836.13;;;15.21;64.70
60437;BME280;46289;51.992;4.498;2023-04-22T08:54:04;100837.16;;;15.04;64.76
60437;BME280;46289;51.992;4.498;2023-04-22T08:56:10;100829.63;;;15.12;63.32
60437;BME280;46289;51.992;4.498;2023-04-22T08:58:18;100815.25;;;15.17;60.45
60437;BME280;46289;51.992;4.498;2023-04-22T09:00:24;100806.50;;;14.86;62.83
60437;BME280;46289;51.992;4.498;2023-04-22T09:02:31;100807.59;;;15.12;64.68
60437;BME280;46289;51.992;4.498;2023-04-22T09:04:37;100805.34;;;15.34;63.56
60437;BME280;46289;51.992;4.498;2023-04-22T09:06:42;100802.56;;;15.22;61.37
60437;BME280;46289;51.992;4.498;2023-04-22T09:08:48;100797.59;;;14.87;60.92
60437;BME280;46289;51.992;4.498;2023-04-22T09:10:54;100792.81;;;14.63;61.20
60437;BME280;46289;51.992;4.498;2023-04-22T09:13:00;100793.94;;;14.59;63.41
60437;BME280;46289;51.992;4.498;2023-04-22T09:15:11;100772.59;;;14.46;59.62
60437;BME280;46289;51.992;4.498;2023-04-22T09:17:17;100782.53;;;14.27;60.21
60437;BME280;46289;51.992;4.498;2023-04-22T09:19:28;100782.28;;;14.16;61.65
60437;BME280;46289;51.992;4.498;2023-04-22T09:21:34;100793.25;;;14.24;62.55
60437;BME280;46289;51.992;4.498;2023-04-22T09:23:51;100783.66;;;14.07;61.31
60437;BME280;46289;51.992;4.498;2023-04-22T09:25:56;100771.78;;;14.30;61.33
60437;BME280;46289;51.992;4.498;2023-04-22T09:28:11;100773.66;;;14.28;61.84
60437;BME280;46289;51.992;4.498;2023-04-22T09:30:22;100783.41;;;13.96;59.71
60437;BME280;46289;51.992;4.498;2023-04-22T09:32:28;100793.38;;;13.91;61.06
60437;BME280;46289;51.992;4.498;2023-04-22T09:34:45;100799.16;;;13.97;62.32
60437;BME280;46289;51.992;4.498;2023-04-22T09:36:50;100808.22;;;14.09;62.60
60437;BME280;46289;51.992;4.498;2023-04-22T09:38:57;100807.69;;;14.18;61.79
60437;BME280;46289;51.992;4.498;2023-04-22T09:41:08;100800.94;;;14.28;61.77
60437;BME280;46289;51.992;4.498;2023-04-22T09:43:19;100793.53;;;14.35;61.21
60437;BME280;46289;51.992;4.498;2023-04-22T09:45:34;100813.72;;;14.36;61.66
60437;BME280;46289;51.992;4.498;2023-04-22T09:47:40;100832.06;;;14.55;62.48
60437;BME280;46289;51.992;4.498;2023-04-22T09:49:45;100836.63;;;14.83;62.12
60437;BME280;46289;51.992;4.498;2023-04-22T09:51:55;100834.25;;;15.09;62.11
60437;BME280;46289;51.992;4.498;2023-04-22T09:54:04;100836.50;;;14.85;60.53
60437;BME280;46289;51.992;4.498;2023-04-22T09:56:10;100844.84;;;15.37;62.02
60437;BME280;46289;51.992;4.498;2023-04-22T09:58:20;100843.78;;;15.85;61.90
60437;BME280;46289;51.992;4.498;2023-04-22T10:00:31;100840.72;;;16.19;61.03
60437;BME280;46289;51.992;4.498;2023-04-22T10:02:37;100850.59;;;15.89;59.70
60437;BME280;46289;51.992;4.498;2023-04-22T10:04:42;100848.28;;;15.68;59.46
60437;BME280;46289;51.992;4.498;2023-04-22T10:06:56;100841.31;;;15.82;59.64
60437;BME280;46289;51.992;4.498;2023-04-22T10:09:04;100835.25;;;15.79;58.01
60437;BME280;46289;51.992;4.498;2023-04-22T10:11:10;100837.63;;;15.84;60.13
60437;BME280;46289;51.992;4.498;2023-04-22T10:13:16;100835.16;;;15.81;59.86
60437;BME280;46289;51.992;4.498;2023-04-22T10:15:25;100833.34;;;15.67;58.93
60437;BME280;46289;51.992;4.498;2023-04-22T10:17:38;100836.50;;;15.88;59.39
60437;BME280;46289;51.992;4.498;2023-04-22T10:19:45;100839.06;;;15.75;60.04
60437;BME280;46289;51.992;4.498;2023-04-22T10:21:59;100825.41;;;15.67;60.65
60437;BME280;46289;51.992;4.498;2023-04-22T10:24:05;100827.97;;;15.54;60.26
60437;BME280;46289;51.992;4.498;2023-04-22T10:26:12;100828.38;;;15.18;60.00
60437;BME280;46289;51.992;4.498;2023-04-22T10:28:21;100830.84;;;15.07;59.36
60437;BME280;46289;51.992;4.498;2023-04-22T10:30:27;100839.84;;;14.88;59.90
60437;BME280;46289;51.992;4.498;2023-04-22T10:32:33;100833.69;;;14.58;59.69
60437;BME280;46289;51.992;4.498;2023-04-22T10:34:41;100843.56;;;14.70;60.13
60437;BME280;46289;51.992;4.498;2023-04-22T10:36:57;100847.09;;;14.55;60.35
60437;BME280;46289;51.992;4.498;2023-04-22T10:39:15;100849.38;;;14.29;60.52
60437;BME280;46289;51.992;4.498;2023-04-22T10:41:28;100849.19;;;14.00;62.28
60437;BME280;46289;51.992;4.498;2023-04-22T10:43:41;100840.59;;;13.97;64.39
60437;BME280;46289;51.992;4.498;2023-04-22T10:45:47;100834.09;;;13.87;65.83
60437;BME280;46289;51.992;4.498;2023-04-22T10:47:52;100836.22;;;13.80;65.81
60437;BME280;46289;51.992;4.498;2023-04-22T10:50:17;100830.50;;;13.72;66.49
60437;BME280;46289;51.992;4.498;2023-04-22T10:52:28;100843.72;;;13.72;65.98
60437;BME280;46289;51.992;4.498;2023-04-22T10:54:56;100834.84;;;13.73;66.14
60437;BME280;46289;51.992;4.498;2023-04-22T10:57:04;100832.94;;;13.59;65.05
60437;BME280;46289;51.992;4.498;2023-04-22T10:59:14;100839.53;;;13.50;66.67
60437;BME280;46289;51.992;4.498;2023-04-22T11:01:22;100837.69;;;13.52;67.15
60437;BME280;46289;51.992;4.498;2023-04-22T11:03:32;100828.94;;;13.34;67.70
60437;BME280;46289;51.992;4.498;2023-04-22T11:05:41;100825.53;;;13.15;69.41
60437;BME280;46289;51.992;4.498;2023-04-22T11:07:48;100813.81;;;13.03;67.07
60437;BME280;46289;51.992;4.498;2023-04-22T11:09:59;100827.47;;;13.11;68.42